sensor_id;sensor_type;location;lat;lon;timestamp;temperature;humidity
58666;DHT22;44436;52.872;6.520;2022-10-16T00:01:18;13.10;99.90
58666;DHT22;44436;52.872;6.520;2022-10-16T00:03:44;13.10;99.90
58666;DHT22;44436;52.872;6.520;2022-10-16T00:06:12;13.10;99.90
58666;DHT22;44436;52.872;6.520;2022-10-16T00:08:38;13.10;99.90
58666;DHT22;44436;52.872;6.520;2022-10-16T00:11:13;13.10;99.90
58666;DHT22;44436;52.872;6.520;2022-10-16T00:13:41;13.20;99.90
58666;DHT22;44436;52.872;6.520;2022-10-16T00:16:07;13.10;99.90
58666;DHT22;44436;52.872;6.520;2022-10-16T00:18:34;13.20;99.90
58666;DHT22;44436;52.872;6.520;2022-10-16T00:21:11;13.20;99.90
58666;DHT22;44436;52.872;6.520;2022-10-16T00:23:38;13.20;99.90
58666;DHT22;44436;52.872;6.520;2022-10-16T00:26:07;13.20;99.90
58666;DHT22;44436;52.872;6.520;2022-10-16T00:28:34;13.20;99.90
58666;DHT22;44436;52.872;6.520;2022-10-16T00:31:06;13.20;99.90
58666;DHT22;44436;52.872;6.520;2022-10-16T00:33:33;13.20;99.90
58666;DHT22;44436;52.872;6.520;2022-10-16T00:36:00;13.10;99.90
58666;DHT22;44436;52.872;6.520;2022-10-16T00:38:26;13.10;99.90
58666;DHT22;44436;52.872;6.520;2022-10-16T00:40:51;13.10;99.90
58666;DHT22;44436;52.872;6.520;2022-10-16T00:43:56;13.20;99.90
58666;DHT22;44436;52.872;6.520;2022-10-16T00:49:03;13.20;99.90
58666;DHT22;44436;52.872;6.520;2022-10-16T00:51:35;13.20;99.90
58666;DHT22;44436;52.872;6.520;2022-10-16T00:54:03;13.20;99.90
58666;DHT22;44436;52.872;6.520;2022-10-16T00:56:29;13.20;99.90
58666;DHT22;44436;52.872;6.520;2022-10-16T00:58:55;13.20;99.90
58666;DHT22;44436;52.872;6.520;2022-10-16T01:01:21;13.10;99.90
58666;DHT22;44436;52.872;6.520;2022-10-16T01:03:47;13.10;99.90
58666;DHT22;44436;52.872;6.520;2022-10-16T01:06:23;13.10;99.90
58666;DHT22;44436;52.872;6.520;2022-10-16T01:09:01;13.10;99.90
58666;DHT22;44436;52.872;6.520;2022-10-16T01:11:44;13.00;99.90
58666;DHT22;44436;52.872;6.520;2022-10-16T01:14:26;13.00;99.90
58666;DHT22;44436;52.872;6.520;2022-10-16T01:17:09;13.10;99.90
58666;DHT22;44436;52.872;6.520;2022-10-16T01:22:14;13.00;99.90
58666;DHT22;44436;52.872;6.520;2022-10-16T01:24:44;13.00;99.90
58666;DHT22;44436;52.872;6.520;2022-10-16T01:27:28;13.00;99.90
58666;DHT22;44436;52.872;6.520;2022-10-16T01:30:13;13.00;99.90
58666;DHT22;44436;52.872;6.520;2022-10-16T01:32:56;13.00;99.90
58666;DHT22;44436;52.872;6.520;2022-10-16T01:35:44;13.00;99.90
58666;DHT22;44436;52.872;6.520;2022-10-16T01:38:21;13.00;99.90
58666;DHT22;44436;52.872;6.520;2022-10-16T01:40:54;13.00;99.90
58666;DHT22;44436;52.872;6.520;2022-10-16T01:43:28;13.10;99.90
58666;DHT22;44436;52.872;6.520;2022-10-16T01:45:57;13.00;99.90
58666;DHT22;44436;52.872;6.520;2022-10-16T01:48:24;13.10;99.90
58666;DHT22;44436;52.872;6.520;2022-10-16T01:51:08;13.10;99.90
58666;DHT22;44436;52.872;6.520;2022-10-16T01:53:36;13.10;99.90
58666;DHT22;44436;52.872;6.520;2022-10-16T01:56:04;13.10;99.90
58666;DHT22;44436;52.872;6.520;2022-10-16T01:58:35;13.10;99.90
58666;DHT22;44436;52.872;6.520;2022-10-16T02:01:03;13.10;99.90
58666;DHT22;44436;52.872;6.520;2022-10-16T02:03:29;13.20;99.90
58666;DHT22;44436;52.872;6.520;2022-10-16T02:05:57;13.10;99.90
58666;DHT22;44436;52.872;6.520;2022-10-16T02:08:26;13.10;99.90
58666;DHT22;44436;52.872;6.520;2022-10-16T02:10:55;13.10;99.90
58666;DHT22;44436;52.872;6.520;2022-10-16T02:13:39;13.10;99.90
58666;DHT22;44436;52.872;6.520;2022-10-16T02:16:08;13.10;99.90
58666;DHT22;44436;52.872;6.520;2022-10-16T02:18:34;13.10;99.90
58666;DHT22;44436;52.872;6.520;2022-10-16T02:29:41;13.00;99.90
58666;DHT22;44436;52.872;6.520;2022-10-16T02:32:12;13.10;99.90
58666;DHT22;44436;52.872;6.520;2022-10-16T02:34:41;13.00;99.90
58666;DHT22;44436;52.872;6.520;2022-10-16T02:37:07;13.10;99.90
58666;DHT22;44436;52.872;6.520;2022-10-16T02:39:33;13.10;99.90
58666;DHT22;44436;52.872;6.520;2022-10-16T02:41:59;13.10;99.90
58666;DHT22;44436;52.872;6.520;2022-10-16T02:44:25;13.10;99.90
58666;DHT22;44436;52.872;6.520;2022-10-16T02:46:51;13.10;99.90
58666;DHT22;44436;52.872;6.520;2022-10-16T02:49:16;13.10;99.90
58666;DHT22;44436;52.872;6.520;2022-10-16T02:51:43;13.10;99.90
58666;DHT22;44436;52.872;6.520;2022-10-16T02:54:08;13.10;99.90
58666;DHT22;44436;52.872;6.520;2022-10-16T02:56:34;13.10;99.90
58666;DHT22;44436;52.872;6.520;2022-10-16T02:59:00;13.10;99.90
58666;DHT22;44436;52.872;6.520;2022-10-16T03:01:25;13.10;99.90
58666;DHT22;44436;52.872;6.520;2022-10-16T03:03:51;13.10;99.90
58666;DHT22;44436;52.872;6.520;2022-10-16T03:06:17;13.20;99.90
58666;DHT22;44436;52.872;6.520;2022-10-16T03:08:42;13.10;99.90
58666;DHT22;44436;52.872;6.520;2022-10-16T03:11:08;13.10;99.90
58666;DHT22;44436;52.872;6.520;2022-10-16T03:13:34;13.10;99.90
58666;DHT22;44436;52.872;6.520;2022-10-16T03:15:59;13.10;99.90
58666;DHT22;44436;52.872;6.520;2022-10-16T03:18:25;13.10;99.90
58666;DHT22;44436;52.872;6.520;2022-10-16T03:20:51;13.10;99.90
58666;DHT22;44436;52.872;6.520;2022-10-16T03:23:17;13.10;99.90
58666;DHT22;44436;52.872;6.520;2022-10-16T03:25:42;13.10;99.90
58666;DHT22;44436;52.872;6.520;2022-10-16T03:28:08;13.10;99.90
58666;DHT22;44436;52.872;6.520;2022-10-16T03:30:33;13.10;99.90
58666;DHT22;44436;52.872;6.520;2022-10-16T03:32:59;13.10;99.90
58666;DHT22;44436;52.872;6.520;2022-10-16T03:35:25;13.10;99.90
58666;DHT22;44436;52.872;6.520;2022-10-16T03:37:51;13.10;99.90
58666;DHT22;44436;52.872;6.520;2022-10-16T03:40:17;13.10;99.90
58666;DHT22;44436;52.872;6.520;2022-10-16T03:42:43;13.10;99.90
58666;DHT22;44436;52.872;6.520;2022-10-16T03:45:10;13.10;99.90
58666;DHT22;44436;52.872;6.520;2022-10-16T03:47:36;13.10;99.90
58666;DHT22;44436;52.872;6.520;2022-10-16T03:50:02;13.10;99.90
58666;DHT22;44436;52.872;6.520;2022-10-16T03:52:28;13.10;99.90
58666;DHT22;44436;52.872;6.520;2022-10-16T03:54:54;13.10;99.90
58666;DHT22;44436;52.872;6.520;2022-10-16T03:57:20;13.10;99.90
58666;DHT22;44436;52.872;6.520;2022-10-16T03:59:46;13.10;99.90
58666;DHT22;44436;52.872;6.520;2022-10-16T04:02:12;13.10;99.90
58666;DHT22;44436;52.872;6.520;2022-10-16T04:04:37;13.00;99.90
58666;DHT22;44436;52.872;6.520;2022-10-16T04:07:03;13.00;99.90
58666;DHT22;44436;52.872;6.520;2022-10-16T04:09:29;13.00;99.90
58666;DHT22;44436;52.872;6.520;2022-10-16T04:11:55;13.00;99.90
58666;DHT22;44436;52.872;6.520;2022-10-16T04:14:20;13.00;99.90
58666;DHT22;44436;52.872;6.520;2022-10-16T04:16:46;13.00;99.90
58666;DHT22;44436;52.872;6.520;2022-10-16T04:19:12;13.00;99.90
58666;DHT22;44436;52.872;6.520;2022-10-16T04:21:37;13.00;99.90
58666;DHT22;44436;52.872;6.520;2022-10-16T04:24:03;13.00;99.90
58666;DHT22;44436;52.872;6.520;2022-10-16T04:26:29;12.90;99.90
58666;DHT22;44436;52.872;6.520;2022-10-16T04:28:55;12.90;99.90
58666;DHT22;44436;52.872;6.520;2022-10-16T04:31:21;12.90;99.90
58666;DHT22;44436;52.872;6.520;2022-10-16T04:33:47;12.90;99.90
58666;DHT22;44436;52.872;6.520;2022-10-16T04:36:13;12.90;99.90
58666;DHT22;44436;52.872;6.520;2022-10-16T04:38:39;12.90;99.90
58666;DHT22;44436;52.872;6.520;2022-10-16T04:41:06;12.80;99.90
58666;DHT22;44436;52.872;6.520;2022-10-16T04:43:33;12.80;99.90
58666;DHT22;44436;52.872;6.520;2022-10-16T04:45:59;12.80;99.90
58666;DHT22;44436;52.872;6.520;2022-10-16T04:48:25;12.80;99.90
58666;DHT22;44436;52.872;6.520;2022-10-16T04:50:51;12.80;99.90
58666;DHT22;44436;52.872;6.520;2022-10-16T04:53:16;12.80;99.90
58666;DHT22;44436;52.872;6.520;2022-10-16T04:55:43;12.80;99.90
58666;DHT22;44436;52.872;6.520;2022-10-16T04:58:09;12.80;99.90
58666;DHT22;44436;52.872;6.520;2022-10-16T05:00:35;12.80;99.90
58666;DHT22;44436;52.872;6.520;2022-10-16T05:03:01;12.90;99.90
58666;DHT22;44436;52.872;6.520;2022-10-16T05:05:31;12.90;99.90
58666;DHT22;44436;52.872;6.520;2022-10-16T05:07:57;12.90;99.90
58666;DHT22;44436;52.872;6.520;2022-10-16T05:10:22;12.90;99.90
58666;DHT22;44436;52.872;6.520;2022-10-16T05:12:48;12.90;99.90
58666;DHT22;44436;52.872;6.520;2022-10-16T05:15:14;12.90;99.90
58666;DHT22;44436;52.872;6.520;2022-10-16T05:17:40;12.90;99.90
58666;DHT22;44436;52.872;6.520;2022-10-16T05:20:06;12.90;99.90
58666;DHT22;44436;52.872;6.520;2022-10-16T05:22:32;12.90;99.90
58666;DHT22;44436;52.872;6.520;2022-10-16T05:24:57;12.90;99.90
58666;DHT22;44436;52.872;6.520;2022-10-16T05:27:23;12.90;99.90
58666;DHT22;44436;52.872;6.520;2022-10-16T05:29:49;12.90;99.90
58666;DHT22;44436;52.872;6.520;2022-10-16T05:32:15;12.90;99.90
58666;DHT22;44436;52.872;6.520;2022-10-16T05:34:42;12.90;99.90
58666;DHT22;44436;52.872;6.520;2022-10-16T05:37:08;12.90;99.90
58666;DHT22;44436;52.872;6.520;2022-10-16T05:39:33;12.90;99.90
58666;DHT22;44436;52.872;6.520;2022-10-16T05:41:59;12.90;99.90
58666;DHT22;44436;52.872;6.520;2022-10-16T05:44:25;12.90;99.90
58666;DHT22;44436;52.872;6.520;2022-10-16T05:46:50;12.90;99.90
58666;DHT22;44436;52.872;6.520;2022-10-16T05:49:16;12.90;99.90
58666;DHT22;44436;52.872;6.520;2022-10-16T05:51:42;12.90;99.90
58666;DHT22;44436;52.872;6.520;2022-10-16T05:54:09;12.90;99.90
58666;DHT22;44436;52.872;6.520;2022-10-16T05:56:34;12.90;99.90
58666;DHT22;44436;52.872;6.520;2022-10-16T05:59:00;12.90;99.90
58666;DHT22;44436;52.872;6.520;2022-10-16T06:01:26;12.90;99.90
58666;DHT22;44436;52.872;6.520;2022-10-16T06:03:52;13.00;99.90
58666;DHT22;44436;52.872;6.520;2022-10-16T06:06:21;12.90;99.90
58666;DHT22;44436;52.872;6.520;2022-10-16T06:08:48;12.90;99.90
58666;DHT22;44436;52.872;6.520;2022-10-16T06:11:16;12.90;99.90
58666;DHT22;44436;52.872;6.520;2022-10-16T06:13:42;12.90;99.90
58666;DHT22;44436;52.872;6.520;2022-10-16T06:16:09;12.90;99.90
58666;DHT22;44436;52.872;6.520;2022-10-16T06:18:35;12.90;99.90
58666;DHT22;44436;52.872;6.520;2022-10-16T06:21:08;12.90;99.90
58666;DHT22;44436;52.872;6.520;2022-10-16T06:23:34;12.90;99.90
58666;DHT22;44436;52.872;6.520;2022-10-16T06:26:11;12.90;99.90
58666;DHT22;44436;52.872;6.520;2022-10-16T06:28:37;12.90;99.90
58666;DHT22;44436;52.872;6.520;2022-10-16T06:31:04;12.90;99.90
58666;DHT22;44436;52.872;6.520;2022-10-16T06:33:31;12.90;99.90
58666;DHT22;44436;52.872;6.520;2022-10-16T06:36:04;12.90;99.90
58666;DHT22;44436;52.872;6.520;2022-10-16T06:38:31;13.00;99.90
58666;DHT22;44436;52.872;6.520;2022-10-16T06:40:57;12.90;99.90
58666;DHT22;44436;52.872;6.520;2022-10-16T06:43:23;13.00;99.90
58666;DHT22;44436;52.872;6.520;2022-10-16T06:45:53;13.00;99.90
58666;DHT22;44436;52.872;6.520;2022-10-16T06:48:19;13.00;99.90
58666;DHT22;44436;52.872;6.520;2022-10-16T06:51:13;13.00;99.90
58666;DHT22;44436;52.872;6.520;2022-10-16T06:53:43;13.00;99.90
58666;DHT22;44436;52.872;6.520;2022-10-16T06:56:21;13.00;99.90
58666;DHT22;44436;52.872;6.520;2022-10-16T06:58:48;13.00;99.90
58666;DHT22;44436;52.872;6.520;2022-10-16T07:01:15;13.00;99.90
58666;DHT22;44436;52.872;6.520;2022-10-16T07:03:42;13.10;99.90
58666;DHT22;44436;52.872;6.520;2022-10-16T07:06:11;13.00;99.90
58666;DHT22;44436;52.872;6.520;2022-10-16T07:08:38;13.10;99.90
58666;DHT22;44436;52.872;6.520;2022-10-16T07:11:07;13.10;99.90
58666;DHT22;44436;52.872;6.520;2022-10-16T07:13:33;13.10;99.90
58666;DHT22;44436;52.872;6.520;2022-10-16T07:16:11;13.10;99.90
58666;DHT22;44436;52.872;6.520;2022-10-16T07:18:37;13.10;99.90
58666;DHT22;44436;52.872;6.520;2022-10-16T07:21:10;13.10;99.90
58666;DHT22;44436;52.872;6.520;2022-10-16T07:23:36;13.20;99.90
58666;DHT22;44436;52.872;6.520;2022-10-16T07:26:03;13.20;99.90
58666;DHT22;44436;52.872;6.520;2022-10-16T07:28:29;13.20;99.90
58666;DHT22;44436;52.872;6.520;2022-10-16T07:30:55;13.20;99.90
58666;DHT22;44436;52.872;6.520;2022-10-16T07:33:21;13.30;99.90
58666;DHT22;44436;52.872;6.520;2022-10-16T07:35:48;13.30;99.90
58666;DHT22;44436;52.872;6.520;2022-10-16T07:38:14;13.30;99.90
58666;DHT22;44436;52.872;6.520;2022-10-16T07:40:40;13.30;99.90
58666;DHT22;44436;52.872;6.520;2022-10-16T07:43:05;13.30;99.90
58666;DHT22;44436;52.872;6.520;2022-10-16T07:45:31;13.40;99.90
58666;DHT22;44436;52.872;6.520;2022-10-16T07:47:57;13.40;99.90
58666;DHT22;44436;52.872;6.520;2022-10-16T07:50:22;13.40;99.90
58666;DHT22;44436;52.872;6.520;2022-10-16T07:52:48;13.40;99.90
58666;DHT22;44436;52.872;6.520;2022-10-16T07:55:14;13.40;99.90
58666;DHT22;44436;52.872;6.520;2022-10-16T07:57:39;13.40;99.90
58666;DHT22;44436;52.872;6.520;2022-10-16T08:00:05;13.50;99.90
58666;DHT22;44436;52.872;6.520;2022-10-16T08:02:31;13.50;99.90
58666;DHT22;44436;52.872;6.520;2022-10-16T08:04:57;13.60;99.90
58666;DHT22;44436;52.872;6.520;2022-10-16T08:07:23;13.60;99.90
58666;DHT22;44436;52.872;6.520;2022-10-16T08:09:49;13.70;99.90
58666;DHT22;44436;52.872;6.520;2022-10-16T08:12:17;13.60;99.90
58666;DHT22;44436;52.872;6.520;2022-10-16T08:14:42;13.80;99.90
58666;DHT22;44436;52.872;6.520;2022-10-16T08:17:08;13.80;99.90
58666;DHT22;44436;52.872;6.520;2022-10-16T08:19:34;13.90;99.90
58666;DHT22;44436;52.872;6.520;2022-10-16T08:22:00;13.90;99.90
58666;DHT22;44436;52.872;6.520;2022-10-16T08:24:26;14.00;99.90
58666;DHT22;44436;52.872;6.520;2022-10-16T08:26:54;14.00;99.90
58666;DHT22;44436;52.872;6.520;2022-10-16T08:29:19;14.10;99.90
58666;DHT22;44436;52.872;6.520;2022-10-16T08:31:45;14.10;99.90
58666;DHT22;44436;52.872;6.520;2022-10-16T08:34:11;14.10;99.90
58666;DHT22;44436;52.872;6.520;2022-10-16T08:36:36;14.20;99.90
58666;DHT22;44436;52.872;6.520;2022-10-16T08:39:03;14.20;99.90
58666;DHT22;44436;52.872;6.520;2022-10-16T08:41:54;14.30;99.90
58666;DHT22;44436;52.872;6.520;2022-10-16T08:44:54;14.30;99.90
58666;DHT22;44436;52.872;6.520;2022-10-16T08:47:31;14.40;99.90
58666;DHT22;44436;52.872;6.520;2022-10-16T08:50:08;14.50;99.90
58666;DHT22;44436;52.872;6.520;2022-10-16T08:52:38;14.50;99.90
58666;DHT22;44436;52.872;6.520;2022-10-16T08:55:04;14.60;99.90
58666;DHT22;44436;52.872;6.520;2022-10-16T08:57:30;14.70;99.90
58666;DHT22;44436;52.872;6.520;2022-10-16T09:00:12;14.70;99.90
58666;DHT22;44436;52.872;6.520;2022-10-16T09:02:44;14.80;99.90
58666;DHT22;44436;52.872;6.520;2022-10-16T09:10:34;15.00;99.90
58666;DHT22;44436;52.872;6.520;2022-10-16T09:16:30;15.00;99.90
58666;DHT22;44436;52.872;6.520;2022-10-16T09:19:20;15.10;99.90
58666;DHT22;44436;52.872;6.520;2022-10-16T09:21:47;15.20;99.90
58666;DHT22;44436;52.872;6.520;2022-10-16T09:24:16;15.20;99.90
58666;DHT22;44436;52.872;6.520;2022-10-16T09:26:44;15.30;99.90
58666;DHT22;44436;52.872;6.520;2022-10-16T09:29:18;15.30;99.90
58666;DHT22;44436;52.872;6.520;2022-10-16T09:31:51;15.30;99.90
58666;DHT22;44436;52.872;6.520;2022-10-16T09:36:50;15.40;99.90
58666;DHT22;44436;52.872;6.520;2022-10-16T09:39:16;15.40;99.90
58666;DHT22;44436;52.872;6.520;2022-10-16T09:41:44;15.50;99.90
58666;DHT22;44436;52.872;6.520;2022-10-16T09:44:29;15.50;99.90
58666;DHT22;44436;52.872;6.520;2022-10-16T09:47:04;15.50;99.90
58666;DHT22;44436;52.872;6.520;2022-10-16T09:49:29;15.60;99.90
58666;DHT22;44436;52.872;6.520;2022-10-16T09:52:09;15.60;99.90
58666;DHT22;44436;52.872;6.520;2022-10-16T09:54:36;15.70;99.90
58666;DHT22;44436;52.872;6.520;2022-10-16T09:57:06;15.70;99.90
58666;DHT22;44436;52.872;6.520;2022-10-16T09:59:32;15.70;99.90
58666;DHT22;44436;52.872;6.520;2022-10-16T10:02:02;15.70;99.90
58666;DHT22;44436;52.872;6.520;2022-10-16T10:04:38;15.80;99.90
58666;DHT22;44436;52.872;6.520;2022-10-16T10:07:05;15.90;99.90
58666;DHT22;44436;52.872;6.520;2022-10-16T10:09:44;16.00;99.90
58666;DHT22;44436;52.872;6.520;2022-10-16T10:14:49;16.10;99.90
58666;DHT22;44436;52.872;6.520;2022-10-16T10:17:21;16.10;99.90
58666;DHT22;44436;52.872;6.520;2022-10-16T10:19:55;16.20;99.90
58666;DHT22;44436;52.872;6.520;2022-10-16T10:32:59;16.30;99.90
58666;DHT22;44436;52.872;6.520;2022-10-16T10:35:36;16.30;99.90
58666;DHT22;44436;52.872;6.520;2022-10-16T10:40:51;16.40;99.90
58666;DHT22;44436;52.872;6.520;2022-10-16T10:43:25;16.40;99.90
58666;DHT22;44436;52.872;6.520;2022-10-16T10:46:03;16.50;99.90
58666;DHT22;44436;52.872;6.520;2022-10-16T10:51:44;16.50;99.90
58666;DHT22;44436;52.872;6.520;2022-10-16T10:54:22;16.50;99.90
58666;DHT22;44436;52.872;6.520;2022-10-16T11:08:03;16.70;99.90
58666;DHT22;44436;52.872;6.520;2022-10-16T11:13:36;16.80;99.90
58666;DHT22;44436;52.872;6.520;2022-10-16T11:16:42;16.80;99.90
58666;DHT22;44436;52.872;6.520;2022-10-16T11:19:13;16.80;99.90
58666;DHT22;44436;52.872;6.520;2022-10-16T11:21:49;16.80;99.90
58666;DHT22;44436;52.872;6.520;2022-10-16T11:24:31;16.90;99.90
58666;DHT22;44436;52.872;6.520;2022-10-16T11:27:07;17.00;99.90
58666;DHT22;44436;52.872;6.520;2022-10-16T11:29:35;17.10;99.90
58666;DHT22;44436;52.872;6.520;2022-10-16T11:32:21;17.20;99.90
58666;DHT22;44436;52.872;6.520;2022-10-16T11:34:55;17.20;99.90
58666;DHT22;44436;52.872;6.520;2022-10-16T11:37:40;17.30;99.60
58666;DHT22;44436;52.872;6.520;2022-10-16T11:40:28;17.40;99.10
58666;DHT22;44436;52.872;6.520;2022-10-16T11:43:27;17.40;97.90
58666;DHT22;44436;52.872;6.520;2022-10-16T11:45:55;17.40;97.40
58666;DHT22;44436;52.872;6.520;2022-10-16T11:51:16;17.30;98.30
58666;DHT22;44436;52.872;6.520;2022-10-16T11:53:59;17.30;98.70
58666;DHT22;44436;52.872;6.520;2022-10-16T11:56:28;17.20;98.30
58666;DHT22;44436;52.872;6.520;2022-10-16T12:01:41;17.00;97.70
58666;DHT22;44436;52.872;6.520;2022-10-16T12:04:43;16.90;97.80
58666;DHT22;44436;52.872;6.520;2022-10-16T12:07:17;16.90;98.00
58666;DHT22;44436;52.872;6.520;2022-10-16T12:09:45;16.80;98.70
58666;DHT22;44436;52.872;6.520;2022-10-16T12:12:36;16.80;99.10
58666;DHT22;44436;52.872;6.520;2022-10-16T12:15:27;16.80;98.90
58666;DHT22;44436;52.872;6.520;2022-10-16T12:17:54;16.90;99.80
58666;DHT22;44436;52.872;6.520;2022-10-16T12:20:29;17.00;99.40
58666;DHT22;44436;52.872;6.520;2022-10-16T12:23:04;17.20;99.00
58666;DHT22;44436;52.872;6.520;2022-10-16T12:25:35;17.30;97.90
58666;DHT22;44436;52.872;6.520;2022-10-16T12:28:05;17.40;96.80
58666;DHT22;44436;52.872;6.520;2022-10-16T12:30:35;17.40;96.30
58666;DHT22;44436;52.872;6.520;2022-10-16T12:33:15;17.40;95.20
58666;DHT22;44436;52.872;6.520;2022-10-16T12:35:45;17.40;95.80
58666;DHT22;44436;52.872;6.520;2022-10-16T12:38:20;17.30;95.70
58666;DHT22;44436;52.872;6.520;2022-10-16T12:41:25;17.30;95.60
58666;DHT22;44436;52.872;6.520;2022-10-16T12:43:52;17.20;96.30
58666;DHT22;44436;52.872;6.520;2022-10-16T12:46:23;17.20;96.20
58666;DHT22;44436;52.872;6.520;2022-10-16T12:48:49;17.20;96.20
58666;DHT22;44436;52.872;6.520;2022-10-16T12:56:55;17.20;93.70
58666;DHT22;44436;52.872;6.520;2022-10-16T13:14:22;17.20;92.70
58666;DHT22;44436;52.872;6.520;2022-10-16T13:20:03;17.40;92.60
58666;DHT22;44436;52.872;6.520;2022-10-16T13:22:33;17.40;92.90
58666;DHT22;44436;52.872;6.520;2022-10-16T13:30:18;17.40;92.20
58666;DHT22;44436;52.872;6.520;2022-10-16T13:32:50;17.40;92.40
58666;DHT22;44436;52.872;6.520;2022-10-16T13:35:23;17.40;92.60
58666;DHT22;44436;52.872;6.520;2022-10-16T13:37:50;17.40;92.30
58666;DHT22;44436;52.872;6.520;2022-10-16T13:40:22;17.40;92.80
58666;DHT22;44436;52.872;6.520;2022-10-16T13:42:49;17.30;93.30
58666;DHT22;44436;52.872;6.520;2022-10-16T13:45:23;17.30;93.50
58666;DHT22;44436;52.872;6.520;2022-10-16T13:48:04;17.20;94.20
58666;DHT22;44436;52.872;6.520;2022-10-16T13:50:30;17.10;95.00
58666;DHT22;44436;52.872;6.520;2022-10-16T13:53:06;17.10;95.20
58666;DHT22;44436;52.872;6.520;2022-10-16T13:55:32;17.00;95.40
58666;DHT22;44436;52.872;6.520;2022-10-16T13:58:14;16.90;95.70
58666;DHT22;44436;52.872;6.520;2022-10-16T14:00:41;17.00;96.20
58666;DHT22;44436;52.872;6.520;2022-10-16T14:03:19;17.00;96.30
58666;DHT22;44436;52.872;6.520;2022-10-16T14:05:54;17.10;96.60
58666;DHT22;44436;52.872;6.520;2022-10-16T14:08:21;17.20;96.70
58666;DHT22;44436;52.872;6.520;2022-10-16T14:10:56;17.30;96.80
58666;DHT22;44436;52.872;6.520;2022-10-16T14:13:36;17.30;97.00
58666;DHT22;44436;52.872;6.520;2022-10-16T14:16:07;17.40;96.90
58666;DHT22;44436;52.872;6.520;2022-10-16T14:18:35;17.40;96.50
58666;DHT22;44436;52.872;6.520;2022-10-16T14:21:14;17.50;96.50
58666;DHT22;44436;52.872;6.520;2022-10-16T14:23:42;17.50;96.40
58666;DHT22;44436;52.872;6.520;2022-10-16T14:28:34;17.40;96.40
58666;DHT22;44436;52.872;6.520;2022-10-16T14:31:02;17.40;96.40
58666;DHT22;44436;52.872;6.520;2022-10-16T14:38:37;17.40;97.30
58666;DHT22;44436;52.872;6.520;2022-10-16T14:41:04;17.40;97.10
58666;DHT22;44436;52.872;6.520;2022-10-16T14:43:40;17.30;96.90
58666;DHT22;44436;52.872;6.520;2022-10-16T14:46:13;17.40;96.80
58666;DHT22;44436;52.872;6.520;2022-10-16T14:48:42;17.20;96.70
58666;DHT22;44436;52.872;6.520;2022-10-16T14:51:13;17.20;97.40
58666;DHT22;44436;52.872;6.520;2022-10-16T14:53:40;17.20;97.30
58666;DHT22;44436;52.872;6.520;2022-10-16T14:56:07;17.10;97.50
58666;DHT22;44436;52.872;6.520;2022-10-16T14:58:34;17.10;97.50
58666;DHT22;44436;52.872;6.520;2022-10-16T15:01:00;17.10;97.60
58666;DHT22;44436;52.872;6.520;2022-10-16T15:03:26;17.00;97.70
58666;DHT22;44436;52.872;6.520;2022-10-16T15:05:52;17.00;98.00
58666;DHT22;44436;52.872;6.520;2022-10-16T15:08:17;17.00;98.40
58666;DHT22;44436;52.872;6.520;2022-10-16T15:10:43;17.00;98.40
58666;DHT22;44436;52.872;6.520;2022-10-16T15:13:15;16.90;98.80
58666;DHT22;44436;52.872;6.520;2022-10-16T15:15:45;16.90;98.70
58666;DHT22;44436;52.872;6.520;2022-10-16T15:18:12;16.90;98.40
58666;DHT22;44436;52.872;6.520;2022-10-16T15:20:40;16.80;98.60
58666;DHT22;44436;52.872;6.520;2022-10-16T15:23:17;16.80;98.80
58666;DHT22;44436;52.872;6.520;2022-10-16T15:25:54;16.80;98.80
58666;DHT22;44436;52.872;6.520;2022-10-16T15:28:21;16.70;99.00
58666;DHT22;44436;52.872;6.520;2022-10-16T15:30:50;16.60;99.10
58666;DHT22;44436;52.872;6.520;2022-10-16T15:33:19;16.60;99.30
58666;DHT22;44436;52.872;6.520;2022-10-16T15:35:50;16.50;99.50
58666;DHT22;44436;52.872;6.520;2022-10-16T15:38:17;16.50;99.70
58666;DHT22;44436;52.872;6.520;2022-10-16T15:40:43;16.40;99.90
58666;DHT22;44436;52.872;6.520;2022-10-16T15:43:09;16.40;99.90
58666;DHT22;44436;52.872;6.520;2022-10-16T15:45:35;16.30;99.90
58666;DHT22;44436;52.872;6.520;2022-10-16T15:48:01;16.30;99.90
58666;DHT22;44436;52.872;6.520;2022-10-16T15:50:27;16.20;99.90
58666;DHT22;44436;52.872;6.520;2022-10-16T15:52:53;16.20;99.90
58666;DHT22;44436;52.872;6.520;2022-10-16T15:55:19;16.10;99.90
58666;DHT22;44436;52.872;6.520;2022-10-16T15:57:45;16.10;99.90
58666;DHT22;44436;52.872;6.520;2022-10-16T16:00:13;16.00;99.90
58666;DHT22;44436;52.872;6.520;2022-10-16T16:02:40;16.00;99.90
58666;DHT22;44436;52.872;6.520;2022-10-16T16:05:07;16.00;99.90
58666;DHT22;44436;52.872;6.520;2022-10-16T16:07:37;16.00;99.90
58666;DHT22;44436;52.872;6.520;2022-10-16T16:10:06;15.90;99.90
58666;DHT22;44436;52.872;6.520;2022-10-16T16:12:32;15.80;99.90
58666;DHT22;44436;52.872;6.520;2022-10-16T16:14:58;15.80;99.90
58666;DHT22;44436;52.872;6.520;2022-10-16T16:17:24;15.80;99.90
58666;DHT22;44436;52.872;6.520;2022-10-16T16:19:50;15.70;99.90
58666;DHT22;44436;52.872;6.520;2022-10-16T16:22:16;15.70;99.90
58666;DHT22;44436;52.872;6.520;2022-10-16T16:24:42;15.60;99.90
58666;DHT22;44436;52.872;6.520;2022-10-16T16:27:08;15.60;99.90
58666;DHT22;44436;52.872;6.520;2022-10-16T16:29:33;15.50;99.90
58666;DHT22;44436;52.872;6.520;2022-10-16T16:32:00;15.50;99.90
58666;DHT22;44436;52.872;6.520;2022-10-16T16:34:29;15.50;99.90
58666;DHT22;44436;52.872;6.520;2022-10-16T16:36:55;15.40;99.90
58666;DHT22;44436;52.872;6.520;2022-10-16T16:39:22;15.40;99.90
58666;DHT22;44436;52.872;6.520;2022-10-16T16:41:48;15.30;99.90
58666;DHT22;44436;52.872;6.520;2022-10-16T16:44:15;15.20;99.90
58666;DHT22;44436;52.872;6.520;2022-10-16T16:46:42;15.20;99.90
58666;DHT22;44436;52.872;6.520;2022-10-16T16:49:10;15.10;99.90
58666;DHT22;44436;52.872;6.520;2022-10-16T16:51:36;15.00;99.90
58666;DHT22;44436;52.872;6.520;2022-10-16T16:54:02;15.00;99.90
58666;DHT22;44436;52.872;6.520;2022-10-16T16:56:28;14.90;99.90
58666;DHT22;44436;52.872;6.520;2022-10-16T16:58:55;14.90;99.90
58666;DHT22;44436;52.872;6.520;2022-10-16T17:01:24;14.80;99.90
58666;DHT22;44436;52.872;6.520;2022-10-16T17:03:52;14.80;99.90
58666;DHT22;44436;52.872;6.520;2022-10-16T17:06:19;14.70;99.90
58666;DHT22;44436;52.872;6.520;2022-10-16T17:08:45;14.60;99.90
58666;DHT22;44436;52.872;6.520;2022-10-16T17:11:14;14.60;99.90
58666;DHT22;44436;52.872;6.520;2022-10-16T17:13:40;14.50;99.90
58666;DHT22;44436;52.872;6.520;2022-10-16T17:16:06;14.50;99.90
58666;DHT22;44436;52.872;6.520;2022-10-16T17:18:32;14.50;99.90
58666;DHT22;44436;52.872;6.520;2022-10-16T17:21:03;14.40;99.90
58666;DHT22;44436;52.872;6.520;2022-10-16T17:23:30;14.30;99.90
58666;DHT22;44436;52.872;6.520;2022-10-16T17:25:56;14.30;99.90